Time;durP1;ratioP1;P1;durP2;ratioP2;P2;SDS_P1;SDS_P2;PMS_P1;PMS_P2;Temp;Humidity;BMP_temperature;BMP_pressure;BME280_temperature;BME280_humidity;BME280_pressure;Samples;Min_cycle;Max_cycle;Signal;HPM_P1;HPM_P2
2021/05/28 00:01:38;;;;;;;20.85;6.72;;;;;;;;;;5007799;28;20036;-64
2021/05/28 00:04:05;;;;;;;21.05;6.68;;;;;;;;;;5007890;28;20338;-65
2021/05/28 00:06:31;;;;;;;18.27;6.47;;;;;;;;;;5008894;28;20057;-64
2021/05/28 00:08:57;;;;;;;16.55;5.95;;;;;;;;;;5008802;28;20497;-65
2021/05/28 00:11:23;;;;;;;17.77;6.28;;;;;;;;;;5008341;28;20141;-65
2021/05/28 00:13:49;;;;;;;20.25;6.28;;;;;;;;;;5008611;28;20230;-65
2021/05/28 00:16:15;;;;;;;20.33;7.10;;;;;;;;;;5010387;28;20022;-64
2021/05/28 00:18:41;;;;;;;19.13;6.63;;;;;;;;;;5010067;28;20413;-65
2021/05/28 00:21:07;;;;;;;21.05;7.22;;;;;;;;;;5010295;28;20124;-63
2021/05/28 00:23:33;;;;;;;16.33;6.38;;;;;;;;;;5009896;28;20037;-64
2021/05/28 00:25:59;;;;;;;30.15;8.10;;;;;;;;;;5010012;28;20107;-65
2021/05/28 00:28:25;;;;;;;18.33;6.63;;;;;;;;;;5010019;28;20025;-65
2021/05/28 00:30:51;;;;;;;21.15;7.90;;;;;;;;;;5009594;28;20496;-64
2021/05/28 00:33:20;;;;;;;20.95;7.57;;;;;;;;;;5009599;28;20561;-64
2021/05/28 00:35:46;;;;;;;19.60;8.38;;;;;;;;;;5009773;28;20588;-64
2021/05/28 00:38:12;;;;;;;22.55;8.23;;;;;;;;;;5009670;28;20180;-64
2021/05/28 00:40:38;;;;;;;21.80;8.23;;;;;;;;;;5009900;28;20121;-64
2021/05/28 00:43:04;;;;;;;23.10;7.40;;;;;;;;;;5009873;28;20021;-64
2021/05/28 00:45:30;;;;;;;22.73;8.25;;;;;;;;;;5010385;28;20029;-65
2021/05/28 00:47:56;;;;;;;21.08;7.70;;;;;;;;;;5010463;28;20120;-64
2021/05/28 00:50:22;;;;;;;22.13;7.88;;;;;;;;;;5034589;23;20041;-66
2021/05/28 00:52:49;;;;;;;21.05;8.00;;;;;;;;;;5030673;28;20025;-67
2021/05/28 00:55:15;;;;;;;20.98;7.72;;;;;;;;;;5031353;28;20032;-67
2021/05/28 00:57:42;;;;;;;20.92;7.35;;;;;;;;;;5031236;28;20021;-67
2021/05/28 01:00:08;;;;;;;22.67;8.05;;;;;;;;;;5031187;28;20022;-68
2021/05/28 01:02:34;;;;;;;22.25;7.70;;;;;;;;;;5013544;28;20112;-67
2021/05/28 01:05:00;;;;;;;18.95;7.65;;;;;;;;;;5014108;28;20028;-67
2021/05/28 01:07:26;;;;;;;21.48;8.38;;;;;;;;;;5013800;28;20401;-68
2021/05/28 01:09:52;;;;;;;29.77;10.15;;;;;;;;;;5014299;28;20032;-68
2021/05/28 01:12:18;;;;;;;22.45;8.43;;;;;;;;;;5013345;28;20029;-67
2021/05/28 01:14:45;;;;;;;25.52;7.82;;;;;;;;;;5013625;28;20029;-67
2021/05/28 01:17:11;;;;;;;18.83;6.75;;;;;;;;;;5014285;28;20496;-67
2021/05/28 01:19:37;;;;;;;22.65;7.72;;;;;;;;;;5013609;28;20025;-67
2021/05/28 01:22:04;;;;;;;20.67;7.50;;;;;;;;;;5013611;28;20025;-67
2021/05/28 01:24:30;;;;;;;19.42;7.45;;;;;;;;;;5013575;28;20394;-67
2021/05/28 01:26:56;;;;;;;20.75;8.70;;;;;;;;;;5013445;28;20036;-67
2021/05/28 01:29:22;;;;;;;22.88;7.25;;;;;;;;;;5014002;28;20025;-68
2021/05/28 01:31:48;;;;;;;23.08;7.32;;;;;;;;;;5014059;28;20025;-67
2021/05/28 01:34:14;;;;;;;22.88;8.45;;;;;;;;;;5014447;28;20029;-68
2021/05/28 01:36:40;;;;;;;22.00;8.60;;;;;;;;;;5014518;28;20416;-67
2021/05/28 01:39:06;;;;;;;51.25;30.80;;;;;;;;;;5014322;28;20106;-67
2021/05/28 01:41:32;;;;;;;24.33;10.10;;;;;;;;;;5014019;28;20022;-67
2021/05/28 01:43:58;;;;;;;26.08;9.52;;;;;;;;;;5014724;28;20035;-68
2021/05/28 01:46:25;;;;;;;27.35;8.90;;;;;;;;;;5013255;28;20029;-67
2021/05/28 01:48:51;;;;;;;20.88;8.65;;;;;;;;;;5014039;28;20028;-67
2021/05/28 01:51:17;;;;;;;21.70;9.82;;;;;;;;;;5013469;28;20030;-67
2021/05/28 01:53:43;;;;;;;22.92;8.65;;;;;;;;;;5014004;28;20045;-68
2021/05/28 01:56:09;;;;;;;27.58;9.10;;;;;;;;;;5013623;28;20030;-68
2021/05/28 01:58:36;;;;;;;24.52;8.60;;;;;;;;;;5013881;28;20496;-68
2021/05/28 02:01:02;;;;;;;22.20;9.13;;;11.40;99.90;;;;;;5013624;28;20025;-67
2021/05/28 02:03:28;;;;;;;23.77;9.40;;;8.50;99.90;;;;;;5013901;28;20396;-68
2021/05/28 02:05:54;;;;;;;23.42;9.20;;;8.30;99.90;;;;;;5014088;28;20052;-68
2021/05/28 02:08:20;;;;;;;22.63;8.70;;;8.30;99.90;;;;;;5014049;28;20033;-68
2021/05/28 02:10:46;;;;;;;29.33;11.50;;;8.40;99.90;;;;;;5013103;28;20022;-67
2021/05/28 02:13:12;;;;;;;24.92;9.15;;;;;;;;;;5013829;28;20356;-68
2021/05/28 02:15:38;;;;;;;19.90;8.85;;;;;;;;;;5013801;28;20025;-67
2021/05/28 02:18:07;;;;;;;24.70;10.10;;;;;;;;;;5013846;28;20025;-68
2021/05/28 02:20:34;;;;;;;19.80;9.20;;;;;;;;;;5013882;28;20026;-68
2021/05/28 02:23:00;;;;;;;23.13;10.07;;;;;;;;;;5017453;28;20029;-67
2021/05/28 02:25:26;;;;;;;23.50;9.98;;;;;;;;;;5017884;28;20026;-68
2021/05/28 02:27:52;;;;;;;27.98;9.27;;;;;;;;;;5017578;28;20036;-67
2021/05/28 02:30:18;;;;;;;24.92;10.13;;;;;;;;;;5017322;28;20056;-67
2021/05/28 02:32:44;;;;;;;23.10;9.70;;;;;;;;;;5017340;28;20033;-66
2021/05/28 02:35:11;;;;;;;26.10;10.15;;;;;;;;;;5017571;28;20028;-67
2021/05/28 02:37:37;;;;;;;28.45;11.98;;;;;;;;;;5017447;28;20056;-67
2021/05/28 02:40:04;;;;;;;22.83;10.40;;;;;;;;;;5017436;28;20516;-67
2021/05/28 02:42:30;;;;;;;22.98;10.07;;;;;;;;;;5016798;28;20030;-68
2021/05/28 02:44:56;;;;;;;32.55;11.40;;;;;;;;;;5017015;28;20025;-68
2021/05/28 02:47:22;;;;;;;27.05;11.57;;;;;;;;;;5017036;28;20033;-68
2021/05/28 02:49:51;;;;;;;25.25;10.80;;;;;;;;;;5016831;28;20029;-67
2021/05/28 02:52:18;;;;;;;26.92;10.85;;;;;;;;;;5016777;28;20037;-68
2021/05/28 02:54:44;;;;;;;24.75;11.00;;;;;;;;;;5016831;28;20347;-67
2021/05/28 02:57:11;;;;;;;26.70;11.65;;;;;;;;;;5016626;28;20037;-68
2021/05/28 02:59:37;;;;;;;26.15;11.70;;;;;;;;;;5016936;28;20045;-68
2021/05/28 03:02:03;;;;;;;26.85;12.25;;;;;;;;;;5016063;28;20029;-68
2021/05/28 03:04:29;;;;;;;29.17;11.35;;;;;;;;;;5016752;28;20444;-67
2021/05/28 03:06:55;;;;;;;27.13;12.15;;;;;;;;;;5016623;28;20026;-67
2021/05/28 03:09:21;;;;;;;25.02;11.98;;;;;;;;;;5016421;28;20026;-66
2021/05/28 03:11:47;;;;;;;26.48;11.88;;;;;;;;;;5015713;28;20026;-67
2021/05/28 03:14:13;;;;;;;26.42;12.95;;;;;;;;;;5016371;28;20028;-68
2021/05/28 03:16:40;;;;;;;28.70;12.90;;;;;;;;;;5015977;28;20488;-67
2021/05/28 03:19:15;;;;;;;26.65;13.48;;;;;;;;;;5016111;28;20024;-67
2021/05/28 03:22:30;;;;;;;26.00;12.65;;;;;;;;;;5033674;28;20025;-67
2021/05/28 03:24:27;;;;;;;26.38;13.57;;;;;;;;;;5033409;28;20038;-67
2021/05/28 03:26:53;;;;;;;29.25;14.70;;;;;;;;;;5015311;28;20030;-67
2021/05/28 03:29:19;;;;;;;32.90;15.38;;;;;;;;;;5015276;28;20053;-66
2021/05/28 03:31:45;;;;;;;29.88;15.65;;;;;;;;;;5014902;28;20029;-67
2021/05/28 03:34:11;;;;;;;31.60;15.77;;;;;;;;;;5014097;28;20503;-67
2021/05/28 03:36:37;;;;;;;31.65;16.08;;;;;;;;;;5015663;28;20116;-67
2021/05/28 03:39:04;;;;;;;30.95;17.50;;;;;;;;;;5015880;28;20053;-68
2021/05/28 03:41:31;;;;;;;31.75;15.60;;;;;;;;;;5015645;28;20022;-67
2021/05/28 03:43:56;;;;;;;32.92;16.67;;;;;;;;;;5015979;28;20124;-67
2021/05/28 03:46:22;;;;;;;31.77;17.55;;;;;;;;;;5015803;28;20166;-67
2021/05/28 03:48:48;;;;;;;34.92;17.88;;;;;;;;;;5015755;28;20037;-67
2021/05/28 03:51:14;;;;;;;28.90;16.50;;;;;;;;;;5015276;28;20030;-67
2021/05/28 03:53:40;;;;;;;32.53;18.52;;;;;;;;;;5015877;28;20385;-68
2021/05/28 03:56:07;;;;;;;28.50;16.08;;;;;;;;;;5015724;28;20485;-68
2021/05/28 03:58:33;;;;;;;28.65;15.63;;;;;;;;;;5015083;28;20436;-68
2021/05/28 04:00:59;;;;;;;35.08;17.20;;;;;;;;;;5014807;28;20062;-68
2021/05/28 04:03:25;;;;;;;28.33;17.23;;;;;;;;;;5015257;28;20052;-68
2021/05/28 04:05:51;;;;;;;29.77;17.48;;;;;;;;;;5015421;28;20121;-69
2021/05/28 04:08:17;;;;;;;29.40;16.30;;;;;;;;;;5015461;28;20374;-67
2021/05/28 04:10:43;;;;;;;27.33;15.50;;;;;;;;;;5015106;28;20029;-68
2021/05/28 04:13:09;;;;;;;33.10;17.10;;;;;;;;;;5015305;28;20072;-68
2021/05/28 04:15:35;;;;;;;32.63;19.05;;;;;;;;;;5015292;28;20331;-67
2021/05/28 04:18:01;;;;;;;32.58;17.90;;;;;;;;;;5015214;28;20611;-68
2021/05/28 04:20:27;;;;;;;30.73;17.83;;;;;;;;;;5014995;28;20103;-68
2021/05/28 04:22:53;;;;;;;29.13;18.20;;;;;;;;;;5014946;28;20056;-68
2021/05/28 04:25:19;;;;;;;29.38;15.57;;;;;;;;;;5015206;28;20025;-68
2021/05/28 04:27:45;;;;;;;28.45;15.68;;;;;;;;;;5015187;28;20033;-67
2021/05/28 04:30:11;;;;;;;29.70;16.60;;;;;;;;;;5014643;28;20026;-68
2021/05/28 04:32:37;;;;;;;30.90;17.90;;;;;;;;;;5014657;28;20154;-68
2021/05/28 04:35:03;;;;;;;32.47;17.25;;;;;;;;;;5014797;28;20436;-68
2021/05/28 04:37:30;;;;;;;29.80;18.02;;;;;;;;;;5014912;28;20389;-67
2021/05/28 04:39:56;;;;;;;31.45;15.95;;;;;;;;;;5014936;28;20209;-68
2021/05/28 04:42:22;;;;;;;30.30;16.95;;;;;;;;;;5014380;28;20052;-67
2021/05/28 04:44:48;;;;;;;32.10;17.27;;;;;;;;;;5014581;28;20107;-67
2021/05/28 04:47:14;;;;;;;27.00;15.70;;;;;;;;;;5014665;28;20164;-67
2021/05/28 04:49:40;;;;;;;26.45;15.18;;;;;;;;;;5014595;28;20124;-68
2021/05/28 04:52:06;;;;;;;28.27;14.98;;;;;;;;;;5014188;28;20564;-68
2021/05/28 04:54:33;;;;;;;24.75;14.48;;;;;;;;;;5014468;28;20168;-67
2021/05/28 04:56:59;;;;;;;24.60;14.57;;;;;;;;;;5014056;28;20338;-68
2021/05/28 04:59:25;;;;;;;26.30;14.50;;;;;;;;;;5014233;28;20032;-69
2021/05/28 05:01:51;;;;;;;24.17;14.30;;;;;;;;;;5013750;28;20132;-67
2021/05/28 05:04:17;;;;;;;26.27;14.45;;;;;;;;;;5014354;28;20156;-67
2021/05/28 05:06:43;;;;;;;25.33;15.15;;;;;;;;;;5014292;28;20025;-67
2021/05/28 05:09:09;;;;;;;24.17;13.98;;;;;;;;;;5014146;28;20445;-67
2021/05/28 05:11:35;;;;;;;23.88;14.18;;;;;;;;;;5013998;28;20026;-67
2021/05/28 05:14:00;;;;;;;27.35;15.05;;;8.30;99.90;;;;;;5013630;28;20022;-67
2021/05/28 05:16:26;;;;;;;26.35;14.93;;;8.50;99.90;;;;;;5014011;28;20021;-68
2021/05/28 05:18:51;;;;;;;27.08;14.55;;;8.40;99.90;;;;;;5013586;28;20389;-67
2021/05/28 05:21:18;;;;;;;23.45;14.20;;;8.50;99.90;;;;;;5013854;28;20026;-68
2021/05/28 05:23:44;;;;;;;24.52;13.18;;;8.50;99.90;;;;;;5031506;28;20560;-67
2021/05/28 05:26:10;;;;;;;24.00;13.80;;;8.40;99.90;;;;;;5013881;28;20115;-67
2021/05/28 05:28:36;;;;;;;26.85;15.40;;;8.40;99.90;;;;;;5013919;28;20512;-68
2021/05/28 05:31:03;;;;;;;25.33;15.45;;;8.40;99.90;;;;;;5013012;28;20034;-66
2021/05/28 05:33:29;;;;;;;27.25;14.90;;;8.30;99.90;;;;;;5013047;28;20179;-68
2021/05/28 05:35:55;;;;;;;30.00;15.95;;;8.50;99.90;;;;;;5013352;28;20100;-68
2021/05/28 05:38:20;;;;;;;26.08;14.82;;;8.50;99.90;;;;;;5013503;28;20024;-68
2021/05/28 05:40:47;;;;;;;24.27;13.77;;;8.50;99.90;;;;;;5013007;28;20030;-68
2021/05/28 05:43:13;;;;;;;23.88;13.68;;;8.60;99.90;;;;;;5012932;28;20033;-67
2021/05/28 05:45:39;;;;;;;24.15;12.95;;;8.80;99.90;;;;;;5013428;28;20477;-67
2021/05/28 05:48:06;;;;;;;26.95;16.05;;;8.70;99.90;;;;;;5013178;28;20029;-68
2021/05/28 05:50:32;;;;;;;29.05;16.75;;;8.50;99.90;;;;;;5013208;28;20025;-66
2021/05/28 05:52:57;;;;;;;24.27;13.55;;;8.70;99.90;;;;;;5013752;28;20481;-68
2021/05/28 05:55:23;;;;;;;24.23;14.55;;;;;;;;;;5013033;28;20037;-67
2021/05/28 05:57:50;;;;;;;27.67;14.73;;;;;;;;;;5012929;28;20551;-68
2021/05/28 06:00:16;;;;;;;24.95;13.18;;;;;;;;;;5012398;28;20485;-67
2021/05/28 06:02:42;;;;;;;26.60;14.32;;;;;;;;;;5013055;28;20030;-67
2021/05/28 06:05:08;;;;;;;22.33;12.60;;;;;;;;;;5013229;28;20022;-68
2021/05/28 06:07:35;;;;;;;29.42;13.27;;;;;;;;;;5013016;28;20022;-67
2021/05/28 06:10:00;;;;;;;26.05;13.88;;;;;;;;;;5013276;28;20116;-67
2021/05/28 06:12:26;;;;;;;22.83;13.57;;;;;;;;;;5012779;28;20112;-66
2021/05/28 06:14:52;;;;;;;21.73;12.15;;;;;;;;;;5012978;28;20026;-66
2021/05/28 06:17:18;;;;;;;21.95;12.07;;;;;;;;;;5012921;28;20072;-66
2021/05/28 06:19:45;;;;;;;22.98;12.55;;;;;;;;;;5013098;28;20026;-67
2021/05/28 06:22:11;;;;;;;23.23;13.55;;;;;;;;;;5012944;28;20029;-66
2021/05/28 06:24:37;;;;;;;23.65;13.02;;;;;;;;;;5013030;28;20021;-67
2021/05/28 06:27:05;;;;;;;22.83;12.07;;;;;;;;;;5012677;28;20097;-67
2021/05/28 06:29:31;;;;;;;23.02;10.82;;;;;;;;;;5029568;28;20032;-67
2021/05/28 06:31:57;;;;;;;21.63;10.98;;;;;;;;;;5011792;28;20033;-65
2021/05/28 06:34:23;;;;;;;21.17;11.45;;;;;;;;;;5011892;28;20053;-66
2021/05/28 06:36:49;;;;;;;21.02;11.80;;;;;;;;;;5012937;28;20481;-67
2021/05/28 06:39:15;;;;;;;22.50;12.27;;;;;;;;;;5013075;28;20100;-67
2021/05/28 06:41:43;;;;;;;21.38;12.05;;;;;;;;;;5013360;28;20036;-67
2021/05/28 06:44:09;;;;;;;20.30;11.68;;;;;;;;;;5013530;28;20406;-66
2021/05/28 06:46:35;;;;;;;23.42;12.73;;;;;;;;;;5013075;28;20175;-67
2021/05/28 06:49:01;;;;;;;19.70;11.43;;;;;;;;;;5030725;28;20040;-66
2021/05/28 06:51:27;;;;;;;19.63;10.98;;;;;;;;;;5053928;22;20051;-65
2021/05/28 06:53:53;;;;;;;24.75;10.90;;;;;;;;;;5049557;28;20036;-64
2021/05/28 06:56:19;;;;;;;22.58;11.52;;;;;;;;;;5034937;28;20033;-65
2021/05/28 06:58:50;;;;;;;21.27;11.20;;;;;;;;;;5047526;28;20055;-64
2021/05/28 07:01:16;;;;;;;25.50;13.15;;;;;;;;;;5071176;28;20040;-64
2021/05/28 07:03:42;;;;;;;21.85;11.52;;;;;;;;;;5033842;28;20059;-65
2021/05/28 07:06:08;;;;;;;23.27;11.35;;;;;;;;;;5033229;28;20080;-64
2021/05/28 07:08:34;;;;;;;19.80;11.00;;;;;;;;;;5036201;28;20025;-64
2021/05/28 07:11:01;;;;;;;20.65;11.57;;;;;;;;;;5045941;28;20039;-64
2021/05/28 07:13:27;;;;;;;20.92;11.50;;;;;;;;;;5057130;28;20147;-66
2021/05/28 07:15:53;;;;;;;19.27;11.25;;;;;;;;;;5074588;28;20099;-66
2021/05/28 07:18:19;;;;;;;21.55;12.32;;;;;;;;;;5056600;28;20050;-66
2021/05/28 07:20:45;;;;;;;19.38;11.98;;;;;;;;;;5056887;28;20373;-66
2021/05/28 07:23:11;;;;;;;24.10;11.60;;;;;;;;;;5055820;28;20123;-65
2021/05/28 07:25:37;;;;;;;19.10;11.68;;;;;;;;;;5056262;28;20024;-65
2021/05/28 07:28:04;;;;;;;20.02;11.85;;;;;;;;;;5047109;28;20120;-65
2021/05/28 07:30:30;;;;;;;23.42;11.13;;;;;;;;;;5035985;28;20036;-65
2021/05/28 07:32:56;;;;;;;19.27;11.32;;;;;;;;;;5036063;28;20464;-66
2021/05/28 07:35:22;;;;;;;19.08;11.10;;;;;;;;;;5036298;28;20115;-65
2021/05/28 07:37:48;;;;;;;20.38;11.70;;;;;;;;;;5035912;28;20027;-65
2021/05/28 07:40:14;;;;;;;21.85;11.75;;;;;;;;;;5036183;28;20459;-65
2021/05/28 07:42:40;;;;;;;19.00;10.95;;;;;;;;;;5035959;28;20473;-66
2021/05/28 07:45:07;;;;;;;20.27;11.50;;;;;;;;;;5036004;28;20025;-65
2021/05/28 07:47:35;;;;;;;19.65;11.18;;;;;;;;;;5035852;28;20310;-65
2021/05/28 07:50:03;;;;;;;20.80;11.90;;;;;;;;;;5035638;28;20040;-63
2021/05/28 07:52:30;;;;;;;18.63;11.00;;;;;;;;;;5035452;28;20025;-65
2021/05/28 07:54:56;;;;;;;19.58;11.27;;;;;;;;;;5035602;28;20025;-65
2021/05/28 07:57:22;;;;;;;18.85;10.35;;;;;;;;;;5036220;28;20021;-65
2021/05/28 07:59:50;;;;;;;19.85;10.88;;;;;;;;;;5036063;28;20116;-66
2021/05/28 08:02:18;;;;;;;20.85;11.50;;;;;;;;;;5035248;28;20037;-65
2021/05/28 08:04:45;;;;;;;19.48;11.25;;;;;;;;;;5053719;28;20033;-65
2021/05/28 08:07:11;;;;;;;20.60;11.40;;;;;;;;;;5036061;28;20035;-65
2021/05/28 08:09:39;;;;;;;19.33;10.70;;;;;;;;;;5035990;28;20078;-64
2021/05/28 08:12:06;;;;;;;19.52;10.95;;;;;;;;;;5034742;28;20116;-64
2021/05/28 08:14:32;;;;;;;18.55;10.95;;;;;;;;;;5035710;28;20052;-63
2021/05/28 08:16:58;;;;;;;20.73;11.63;;;;;;;;;;5035485;28;20116;-63
2021/05/28 08:19:24;;;;;;;19.48;12.15;;;;;;;;;;5034921;28;20020;-62
2021/05/28 08:21:50;;;;;;;18.70;11.02;;;;;;;;;;5035157;28;20116;-64
2021/05/28 08:24:16;;;;;;;18.50;10.77;;;;;;;;;;5035566;28;20396;-64
2021/05/28 08:26:43;;;;;;;19.10;11.18;;;;;;;;;;5035544;28;20155;-65
2021/05/28 08:29:09;;;;;;;18.48;10.50;;;;;;;;;;5046511;28;20032;-64
2021/05/28 08:31:35;;;;;;;19.50;11.43;;;;;;;;;;5054846;28;20135;-63
2021/05/28 08:34:01;;;;;;;17.75;10.23;;;;;;;;;;5055194;28;20031;-64
2021/05/28 08:36:29;;;;;;;19.50;11.53;;;;;;;;;;5038225;28;20048;-68
2021/05/28 08:38:55;;;;;;;17.95;10.70;;;;;;;;;;5055186;28;20021;-64
2021/05/28 08:41:22;;;;;;;19.65;11.20;;;;;;;;;;5054081;28;20605;-64
2021/05/28 08:43:48;;;;;;;20.80;11.73;;;;;;;;;;5054509;28;20059;-66
2021/05/28 08:46:14;;;;;;;17.83;9.88;;;;;;;;;;5055269;28;20052;-64
2021/05/28 08:48:41;;;;;;;18.65;10.68;;;;;;;;;;5054953;28;20066;-63
2021/05/28 08:51:07;;;;;;;20.58;11.50;;;;;;;;;;5054664;28;20032;-64
2021/05/28 08:53:33;;;;;;;18.02;10.43;;;;;;;;;;5054698;28;20074;-64
2021/05/28 08:55:59;;;;;;;18.85;10.75;;;;;;;;;;5024265;28;20052;-63
2021/05/28 08:58:26;;;;;;;19.90;12.07;;;;;;;;;;5015181;28;20028;-64
2021/05/28 09:00:53;;;;;;;18.02;10.30;;;;;;;;;;5032939;28;20413;-64
2021/05/28 09:03:19;;;;;;;18.10;10.57;;;;;;;;;;5033083;28;20500;-62
2021/05/28 09:05:45;;;;;;;17.88;10.55;;;;;;;;;;5015608;28;20176;-64
2021/05/28 09:08:11;;;;;;;19.48;10.20;;;;;;;;;;5016032;28;20025;-62
2021/05/28 09:10:39;;;;;;;17.67;10.02;;;;;;;;;;5017055;28;20021;-64
2021/05/28 09:13:11;;;;;;;17.33;9.90;;;;;;;;;;5016079;28;20052;-62
2021/05/28 09:15:38;;;;;;;19.67;10.90;;;;;;;;;;5017284;28;20033;-63
2021/05/28 09:18:04;;;;;;;19.05;10.90;;;;;;;;;;5015914;28;20055;-62
2021/05/28 09:20:30;;;;;;;17.33;9.80;;;;;;;;;;5014956;28;20033;-64
2021/05/28 09:23:13;;;;;;;17.75;9.93;;;;;;;;;;5014817;28;20032;-62
2021/05/28 09:26:02;;;;;;;19.90;10.70;;;;;;;;;;5015183;28;20152;-58
2021/05/28 09:28:28;;;;;;;;;;;;;;;;;;5015519;28;20091;-64
2021/05/28 09:30:58;;;;;;;17.88;9.60;;;;;;;;;;5013587;28;20317;-64
2021/05/28 09:33:25;;;;;;;19.27;10.95;;;;;;;;;;5014867;28;20028;-60
2021/05/28 09:35:51;;;;;;;18.30;10.88;;;;;;;;;;5014842;28;20025;-64
2021/05/28 09:38:21;;;;;;;20.13;10.27;;;;;;;;;;5015220;28;20111;-62
2021/05/28 09:40:47;;;;;;;16.85;10.10;;;;;;;;;;5014395;28;20125;-62
2021/05/28 09:43:15;;;;;;;17.48;9.95;;;;;;;;;;5012884;28;20037;-62
2021/05/28 09:45:41;;;;;;;16.93;10.23;;;;;;;;;;5015253;28;20033;-63
2021/05/28 09:48:16;;;;;;;18.13;11.10;;;;;;;;;;5015321;28;20544;-64
2021/05/28 09:50:44;;;;;;;18.10;10.68;;;;;;;;;;5014207;28;20172;-63
2021/05/28 09:53:24;;;;;;;17.52;10.32;;;;;;;;;;5014929;28;20033;-62
2021/05/28 09:55:52;;;;;;;17.30;10.02;;;;;;;;;;5014668;28;20057;-64
2021/05/28 09:58:18;;;;;;;17.63;10.13;;;;;;;;;;5014800;28;20018;-63
2021/05/28 10:00:44;;;;;;;18.58;9.90;;;;;;;;;;5014255;28;20619;-62
2021/05/28 10:03:12;;;;;;;17.58;10.13;;;;;;;;;;5014593;28;20041;-58
2021/05/28 10:05:39;;;;;;;15.65;8.60;;;;;;;;;;5014560;28;20518;-62
2021/05/28 10:08:07;;;;;;;16.83;9.85;;;;;;;;;;5014380;28;20055;-62
2021/05/28 10:10:35;;;;;;;16.67;9.65;;;;;;;;;;5014530;28;20026;-64
2021/05/28 10:13:09;;;;;;;17.25;9.73;;;;;;;;;;5013562;28;20561;-63
2021/05/28 10:15:35;;;;;;;18.08;10.73;;;;;;;;;;5014191;28;20033;-61
2021/05/28 10:18:03;;;;;;;18.38;10.45;;;;;;;;;;5031352;28;20373;-61
2021/05/28 10:20:29;;;;;;;17.65;11.43;;;;;;;;;;5013419;28;20018;-61
2021/05/28 10:22:55;;;;;;;18.60;12.25;;;;;;;;;;5013220;28;20018;-62
2021/05/28 10:25:23;;;;;;;16.92;10.13;;;;;;;;;;5014178;28;20389;-61
2021/05/28 10:27:57;;;;;;;18.02;10.38;;;;;;;;;;5014154;28;20029;-62
2021/05/28 10:30:28;;;;;;;17.13;10.57;;;;;;;;;;5014031;28;20101;-63
2021/05/28 10:33:13;;;;;;;18.65;10.85;;;;;;;;;;5013847;28;20481;-61
2021/05/28 10:35:41;;;;;;;16.77;10.48;;;;;;;;;;5013956;28;20393;-57
2021/05/28 10:38:07;;;;;;;;;;;;;;;;;;5014567;28;20044;-61
2021/05/28 10:40:35;;;;;;;17.10;10.57;;;;;;;;;;5013950;28;19905;-57
2021/05/28 10:43:04;;;;;;;19.13;10.20;;;;;;;;;;5015834;28;20097;-62
2021/05/28 10:45:48;;;;;;;16.60;10.00;;;;;;;;;;5017551;28;20049;-61
2021/05/28 10:48:14;;;;;;;17.63;11.00;;;;;;;;;;5017204;28;20037;-53
2021/05/28 10:50:47;;;;;;;16.73;10.48;;;;;;;;;;5017172;28;20430;-59
2021/05/28 10:53:13;;;;;;;18.70;10.80;;;;;;;;;;5017394;28;20013;-59
2021/05/28 10:56:12;;;;;;;17.02;10.27;;;;;;;;;;5017062;28;20022;-60
2021/05/28 10:58:53;;;;;;;19.25;11.40;;;;;;;;;;4975251;28;20107;-62
2021/05/28 11:01:35;;;;;;;18.75;10.63;;;;;;;;;;5017238;28;20032;-61
2021/05/28 11:04:03;;;;;;;17.20;10.43;;;;;;;;;;5017346;28;20063;-60
2021/05/28 11:06:30;;;;;;;18.73;10.57;;;;;;;;;;5016995;28;20025;-62
2021/05/28 11:09:02;;;;;;;15.30;9.65;;;;;;;;;;5017181;28;20041;-62
2021/05/28 11:11:37;;;;;;;18.52;10.43;;;;;;;;;;5017014;28;20112;-59
2021/05/28 11:14:07;;;;;;;16.15;10.30;;;;;;;;;;5017005;28;20028;-63
2021/05/28 11:17:06;;;;;;;15.25;9.60;;;;;;;;;;5017128;28;20028;-54
2021/05/28 11:19:33;;;;;;;17.40;10.40;;;;;;;;;;4985110;28;20029;-63
2021/05/28 11:22:00;;;;;;;18.45;10.25;;;;;;;;;;5016588;28;20112;-62
2021/05/28 11:24:52;;;;;;;16.50;10.60;;;8.90;99.90;;;;;;5017103;28;20048;-63
2021/05/28 11:27:22;;;;;;;18.02;11.10;;;;;;;;;;5017062;28;20052;-63
2021/05/28 11:29:53;;;;;;;15.60;11.68;;;;;;;;;;5034348;28;20493;-61
2021/05/28 11:32:49;;;;;;;18.52;13.80;;;23.10;99.90;;;;;;5016313;28;20039;-61
2021/05/28 11:35:15;;;;;;;16.60;13.75;;;;;;;;;;4999816;28;20075;-64
2021/05/28 11:37:59;;;;;;;17.00;13.85;;;;;;;;;;5016253;28;20057;-62
2021/05/28 11:40:34;;;;;;;16.88;13.73;;;23.10;99.90;;;;;;5033625;28;20026;-61
2021/05/28 11:43:06;;;;;;;18.83;14.38;;;;;;;;;;5015666;28;20027;-60
2021/05/28 11:45:32;;;;;;;17.80;14.20;;;;;;;;;;5016276;28;20029;-61
2021/05/28 11:47:58;;;;;;;18.90;14.30;;;;;;;;;;5015627;28;20017;-58
2021/05/28 11:50:25;;;;;;;18.92;14.50;;;;;;;;;;5014836;28;20108;-58
2021/05/28 11:53:04;;;;;;;17.90;14.60;;;;;;;;;;5032712;28;20024;-61
2021/05/28 11:55:31;;;;;;;18.27;14.80;;;;;;;;;;5033261;28;20160;-59
2021/05/28 11:57:57;;;;;;;17.10;14.68;;;;;;;;;;5034049;28;20014;-60
2021/05/28 12:00:23;;;;;;;17.98;14.48;;;;;;;;;;4690803;28;10000286;-61
2021/05/28 12:02:52;;;;;;;18.30;14.57;;;;;;;;;;5030659;28;20021;-63
2021/05/28 12:05:22;;;;;;;17.30;14.82;;;;;;;;;;5030830;28;20079;-62
2021/05/28 12:07:48;;;;;;;18.27;14.88;;;22.50;99.90;;;;;;5037947;28;20484;-62
2021/05/28 12:10:15;;;;;;;18.83;14.27;;;;;;;;;;5024325;28;20440;-62
2021/05/28 12:13:00;;;;;;;18.33;14.63;;;26.30;96.90;;;;;;5038841;28;20031;-61
2021/05/28 12:15:27;;;;;;;18.30;14.25;;;;;;;;;;5038677;28;20044;-61
2021/05/28 12:17:54;;;;;;;18.20;14.20;;;;;;;;;;5012632;28;20021;-59
2021/05/28 12:20:21;;;;;;;16.55;13.98;;;;;;;;;;5020846;28;20017;-60
2021/05/28 12:23:00;;;;;;;17.42;13.95;;;;;;;;;;5022453;28;20029;-62
2021/05/28 12:25:26;;;;;;;16.42;13.80;;;;;;;;;;5022050;28;20108;-62
2021/05/28 12:27:53;;;;;;;17.98;13.98;;;;;;;;;;5021799;28;20021;-62
2021/05/28 12:30:26;;;;;;;17.90;14.10;;;;;;;;;;5039529;28;20021;-59
2021/05/28 12:32:52;;;;;;;16.95;14.70;;;;;;;;;;5020236;28;20385;-62
2021/05/28 12:35:20;;;;;;;18.20;14.75;;;;;;;;;;5030351;28;20022;-62
2021/05/28 12:38:03;;;;;;;18.15;14.63;;;;;;;;;;5030227;28;20080;-62
2021/05/28 12:40:29;;;;;;;17.75;14.93;;;;;;;;;;5027344;28;20033;-62
2021/05/28 12:42:55;;;;;;;18.17;13.93;;;;;;;;;;5045887;28;20078;-62
2021/05/28 12:45:31;;;;;;;16.42;13.60;;;;;;;;;;5020486;28;20412;-61
2021/05/28 12:47:57;;;;;;;17.67;13.85;;;;;;;;;;5023453;28;20040;-63
2021/05/28 12:52:53;;;;;;;17.02;14.40;;;;;;;;;;5066796;28;20483;-62
2021/05/28 12:55:33;;;;;;;17.10;14.48;;;23.40;97.30;;;;;;5059214;28;20090;-63
2021/05/28 12:58:00;;;;;;;16.50;14.10;;;;;;;;;;5064081;28;20028;-61
2021/05/28 13:00:37;;;;;;;16.77;14.25;;;;;;;;;;5067838;28;20027;-60
2021/05/28 13:03:03;;;;;;;16.92;15.13;;;;;;;;;;5064557;28;20404;-61
2021/05/28 13:05:39;;;;;;;17.63;13.93;;;;;;;;;;5081067;28;20306;-61
2021/05/28 13:08:08;;;;;;;16.73;14.35;;;;;;;;;;5062141;28;20055;-62
2021/05/28 13:10:34;;;;;;;17.92;14.63;;;;;;;;;;5063013;28;20467;-61
2021/05/28 13:13:22;;;;;;;16.67;14.55;;;24.20;97.30;;;;;;5063758;28;20023;-61
2021/05/28 13:15:49;;;;;;;;;;;27.70;94.10;;;;;;5034481;28;20108;-60
2021/05/28 13:18:15;;;;;;;16.17;13.88;;;26.30;94.20;;;;;;5059640;28;19915;-61
2021/05/28 13:20:42;;;;;;;16.55;14.18;;;;;;;;;;5073701;28;20024;-61
2021/05/28 13:23:18;;;;;;;17.50;14.55;;;;;;;;;;5073566;28;20020;-61
2021/05/28 13:25:43;;;;;;;16.98;14.23;;;26.90;94.30;;;;;;5091883;28;20391;-61
2021/05/28 13:28:12;;;;;;;16.40;14.20;;;25.50;95.20;;;;;;5073523;28;20028;-61
2021/05/28 13:30:40;;;;;;;;;;;25.20;94.20;;;;;;5074024;28;20028;-60
2021/05/28 13:33:13;;;;;;;16.90;14.57;;;25.20;94.40;;;;;;5063529;28;19916;-59
2021/05/28 13:35:39;;;;;;;17.55;13.88;;;24.70;94.90;;;;;;5061537;28;20337;-61
2021/05/28 13:38:05;;;;;;;18.65;14.43;;;;;;;;;;5053482;28;20097;-61
2021/05/28 13:40:31;;;;;;;17.98;14.70;;;;;;;;;;5053139;28;20487;-61
2021/05/28 13:42:57;;;;;;;17.10;14.82;;;25.40;94.30;;;;;;5053561;28;20150;-61
2021/05/28 13:45:23;;;;;;;15.93;14.00;;;25.40;93.30;;;;;;5053464;28;20032;-61
2021/05/28 13:47:49;;;;;;;16.52;14.57;;;;;;;;;;5053147;28;20425;-61
2021/05/28 13:50:15;;;;;;;16.20;14.38;;;;;;;;;;5052951;28;20020;-60
2021/05/28 13:52:41;;;;;;;17.65;14.40;;;;;;;;;;4694219;28;9999892;-59
2021/05/28 13:55:08;;;;;;;17.67;14.63;;;;;;;;;;5047358;28;20040;-63
2021/05/28 13:57:34;;;;;;;16.58;14.27;;;;;;;;;;5060775;28;20028;-61
2021/05/28 14:00:00;;;;;;;18.95;14.95;;;;;;;;;;5059974;28;20067;-61
2021/05/28 14:02:26;;;;;;;17.85;14.35;;;;;;;;;;5058963;28;20100;-62
2021/05/28 14:04:52;;;;;;;18.00;14.50;;;;;;;;;;5070229;28;20031;-61
2021/05/28 14:07:18;;;;;;;16.70;14.05;;;;;;;;;;5069690;28;20027;-61
2021/05/28 14:09:44;;;;;;;17.77;14.63;;;;;;;;;;5069722;28;20024;-61
2021/05/28 14:12:10;;;;;;;18.23;15.02;;;;;;;;;;5070031;28;20027;-61
2021/05/28 14:14:39;;;;;;;16.60;14.63;;;;;;;;;;5070356;28;20453;-60